createdAt,value
2019-01-13T00:04:24.180Z,1.44
2019-01-13T00:06:54.630Z,1.43
2019-01-13T00:09:24.724Z,1.43
2019-01-13T00:11:57.874Z,1.43
2019-01-13T00:14:28.098Z,1.45
2019-01-13T00:16:58.108Z,1.42
2019-01-13T00:19:28.482Z,1.48
2019-01-13T00:21:58.965Z,1.48
2019-01-13T00:24:29.144Z,1.50
2019-01-13T00:26:59.542Z,1.52
2019-01-13T00:29:29.619Z,1.53
2019-01-13T00:32:00.186Z,1.67
2019-01-13T00:34:30.078Z,1.71
2019-01-13T00:36:59.996Z,1.72
2019-01-13T00:39:29.996Z,1.74
2019-01-13T00:42:00.396Z,1.75
2019-01-13T00:44:30.321Z,1.75
2019-01-13T00:47:00.503Z,1.78
2019-01-13T00:49:31.244Z,1.76
2019-01-13T00:52:01.402Z,1.75
2019-01-13T00:54:32.177Z,1.78
2019-01-13T00:57:02.575Z,1.83
2019-01-13T00:59:32.797Z,1.86
2019-01-13T01:02:04.721Z,1.91
2019-01-13T01:04:34.948Z,1.94
2019-01-13T01:07:05.102Z,1.95
2019-01-13T01:09:35.192Z,2.01
2019-01-13T01:23:36.395Z,2.12
2019-01-13T01:36:25.432Z,1.97
2019-01-13T01:38:55.344Z,2.00
2019-01-13T01:41:25.626Z,1.92
2019-01-13T01:43:55.704Z,1.89
2019-01-13T01:57:36.857Z,2.00
2019-01-13T02:00:16.327Z,2.13
2019-01-13T02:02:46.789Z,2.23
2019-01-13T02:05:17.067Z,2.19
2019-01-13T02:07:47.399Z,2.24
2019-01-13T02:10:20.175Z,2.27
2019-01-13T02:12:50.995Z,2.32
2019-01-13T02:15:25.043Z,2.26
2019-01-13T02:17:55.562Z,2.31
2019-01-13T02:24:17.307Z,2.32
2019-01-13T02:26:47.304Z,2.39
2019-01-13T02:29:17.962Z,2.34
2019-01-13T02:31:48.007Z,2.32
2019-01-13T02:34:18.596Z,2.36
2019-01-13T02:36:48.782Z,2.48
2019-01-13T02:39:19.024Z,2.50
2019-01-13T02:41:48.936Z,2.50
2019-01-13T02:44:19.605Z,2.49
2019-01-13T02:46:49.816Z,2.57
2019-01-13T02:49:19.766Z,2.61
2019-01-13T02:51:50.256Z,2.65
2019-01-13T02:54:20.378Z,2.59
2019-01-13T02:56:50.731Z,2.63
2019-01-13T02:59:20.882Z,2.50
2019-01-13T03:01:51.568Z,2.43
2019-01-13T03:04:21.509Z,2.51
2019-01-13T03:10:25.988Z,2.63
2019-01-13T03:12:56.348Z,2.70
2019-01-13T03:15:27.700Z,2.68
2019-01-13T03:17:57.702Z,2.59
2019-01-13T03:20:28.087Z,2.42
2019-01-13T03:22:59.114Z,2.37
2019-01-13T03:25:29.319Z,2.45
2019-01-13T03:27:59.502Z,2.35
2019-01-13T03:30:29.600Z,2.40
2019-01-13T03:32:59.976Z,2.40
2019-01-13T03:35:30.612Z,2.45
2019-01-13T03:38:00.505Z,2.44
2019-01-13T03:40:30.386Z,2.60
2019-01-13T03:43:00.916Z,2.71
2019-01-13T03:45:31.189Z,2.70
2019-01-13T03:48:01.466Z,2.73
2019-01-13T03:50:31.632Z,2.82
2019-01-13T03:53:01.870Z,2.77
2019-01-13T03:55:31.853Z,2.78
2019-01-13T03:58:02.198Z,2.90
2019-01-13T04:00:32.345Z,2.94
2019-01-13T04:03:02.269Z,2.89
2019-01-13T04:05:32.165Z,2.84
2019-01-13T04:08:02.077Z,3.01
2019-01-13T04:10:32.259Z,2.98
2019-01-13T04:13:03.020Z,2.94
2019-01-13T04:16:00.746Z,2.88
2019-01-13T04:18:31.604Z,2.83
2019-01-13T04:21:01.663Z,2.84
2019-01-13T04:23:31.963Z,2.95
2019-01-13T04:26:02.142Z,2.97
2019-01-13T04:28:33.291Z,3.02
2019-01-13T04:31:03.407Z,3.00
2019-01-13T04:33:33.426Z,3.02
2019-01-13T04:36:04.141Z,2.97
2019-01-13T04:38:34.560Z,3.07
2019-01-13T04:41:05.399Z,3.12
2019-01-13T04:43:35.546Z,3.09
2019-01-13T04:46:05.604Z,3.09
2019-01-13T04:48:35.513Z,3.11
2019-01-13T04:51:06.537Z,3.22
2019-01-13T04:53:37.434Z,3.25
2019-01-13T05:00:01.440Z,3.16
2019-01-13T05:02:31.849Z,3.25
2019-01-13T05:05:01.892Z,3.18
2019-01-13T05:11:03.431Z,3.24
2019-01-13T05:13:33.339Z,3.26
2019-01-13T05:30:21.046Z,3.41
2019-01-13T05:32:51.454Z,3.29
2019-01-13T05:35:21.890Z,3.34
2019-01-13T05:37:51.791Z,3.37
2019-01-13T05:40:22.642Z,3.33
2019-01-13T05:42:52.900Z,3.40
2019-01-13T05:45:23.429Z,3.44
2019-01-13T05:47:53.342Z,3.43
2019-01-13T05:50:23.564Z,3.49
2019-01-13T05:52:54.852Z,3.51
2019-01-13T05:55:25.226Z,3.51
2019-01-13T05:57:55.137Z,3.55
2019-01-13T06:00:28.202Z,3.63
2019-01-13T06:02:58.583Z,3.58
2019-01-13T06:05:28.522Z,3.57
2019-01-13T06:07:58.492Z,3.59
2019-01-13T06:10:28.620Z,3.53
2019-01-13T06:12:58.678Z,3.55
2019-01-13T06:15:28.961Z,3.50
2019-01-13T06:17:59.127Z,3.54
2019-01-13T06:20:29.268Z,3.54
2019-01-13T06:22:59.175Z,3.47
2019-01-13T06:25:29.133Z,3.48
2019-01-13T06:27:59.078Z,3.43
2019-01-13T06:30:29.027Z,3.44
2019-01-13T06:32:58.941Z,3.39
2019-01-13T06:35:28.946Z,3.39
2019-01-13T06:37:59.070Z,3.39
2019-01-13T06:40:29.303Z,3.43
2019-01-13T06:43:00.744Z,3.50
2019-01-13T06:45:30.703Z,3.50
2019-01-13T06:48:00.594Z,3.51
2019-01-13T06:50:30.609Z,3.37
2019-01-13T06:53:00.767Z,3.50
2019-01-13T06:55:30.808Z,3.49
2019-01-13T06:58:04.236Z,3.42
2019-01-13T07:00:34.142Z,3.15
2019-01-13T07:03:04.181Z,2.99
2019-01-13T07:05:34.401Z,2.96
2019-01-13T07:08:04.592Z,2.93
2019-01-13T07:10:34.506Z,2.93
2019-01-13T07:13:04.422Z,3.06
2019-01-13T07:15:34.397Z,3.11
2019-01-13T07:18:04.287Z,3.18
2019-01-13T07:20:35.237Z,3.22
2019-01-13T07:23:05.909Z,3.23
2019-01-13T07:25:35.798Z,3.26
2019-01-13T07:28:05.942Z,3.33
2019-01-13T07:30:35.966Z,3.23
2019-01-13T07:33:06.062Z,3.42
2019-01-13T07:35:36.646Z,3.42
2019-01-13T07:38:07.250Z,3.43
2019-01-13T07:40:37.186Z,3.38
2019-01-13T07:43:07.853Z,3.26
2019-01-13T07:45:37.886Z,3.25
2019-01-13T07:48:08.838Z,3.21
2019-01-13T07:50:38.811Z,3.31
2019-01-13T07:53:09.194Z,3.33
2019-01-13T07:55:39.575Z,3.43
2019-01-13T07:58:09.719Z,3.39
2019-01-13T08:00:39.621Z,3.32
2019-01-13T08:03:09.677Z,3.40
2019-01-13T08:05:40.168Z,3.38
2019-01-13T08:08:10.456Z,3.44
2019-01-13T08:10:41.158Z,3.39
2019-01-13T08:13:11.106Z,3.43
2019-01-13T08:15:41.020Z,3.51
2019-01-13T08:18:11.010Z,3.49
2019-01-13T08:20:41.257Z,3.57
2019-01-13T08:23:11.540Z,3.45
2019-01-13T08:25:42.240Z,3.38
2019-01-13T08:28:12.902Z,3.44
2019-01-13T08:30:42.853Z,3.53
2019-01-13T08:33:12.815Z,3.52
2019-01-13T08:35:43.496Z,3.47
2019-01-13T08:38:13.426Z,3.50
2019-01-13T08:40:44.508Z,3.49
2019-01-13T08:43:15.222Z,3.63
2019-01-13T08:45:50.276Z,3.64
2019-01-13T08:48:17.973Z,3.60
2019-01-13T08:50:49.475Z,3.61
2019-01-13T08:53:19.553Z,3.68
2019-01-13T08:55:49.798Z,3.70
2019-01-13T08:58:19.748Z,3.60
2019-01-13T09:00:49.656Z,3.59
2019-01-13T09:03:19.806Z,3.66
2019-01-13T09:05:49.796Z,3.75
2019-01-13T09:08:20.115Z,3.80
2019-01-13T09:10:50.258Z,3.83
2019-01-13T09:13:20.649Z,3.81
2019-01-13T09:15:51.139Z,3.80
2019-01-13T09:18:21.364Z,3.77
2019-01-13T09:20:51.578Z,3.78
2019-01-13T09:23:21.736Z,3.71
2019-01-13T09:25:52.090Z,3.60
2019-01-13T09:28:21.990Z,3.74
2019-01-13T09:30:52.068Z,3.70
2019-01-13T09:33:22.193Z,3.78
2019-01-13T09:35:52.551Z,3.77
2019-01-13T09:38:22.842Z,3.68
2019-01-13T09:40:53.070Z,3.68
2019-01-13T09:43:23.209Z,3.67
2019-01-13T09:45:53.442Z,3.61
2019-01-13T09:48:23.723Z,3.71
2019-01-13T09:50:54.516Z,3.58
2019-01-13T09:53:25.328Z,3.57
2019-01-13T09:55:55.873Z,3.62
2019-01-13T09:58:26.720Z,3.67
2019-01-13T10:00:56.701Z,3.72
2019-01-13T10:03:29.663Z,3.65
2019-01-13T10:05:59.903Z,3.61
2019-01-13T10:08:29.821Z,3.64
2019-01-13T10:11:00.001Z,3.59
2019-01-13T10:13:30.189Z,3.53
2019-01-13T10:16:00.244Z,3.54
2019-01-13T10:18:30.153Z,3.51
2019-01-13T10:21:00.758Z,3.47
2019-01-13T10:23:31.198Z,3.47
2019-01-13T10:26:01.492Z,3.47
2019-01-13T10:28:31.650Z,3.42
2019-01-13T10:31:03.283Z,3.34
2019-01-13T10:33:33.423Z,3.39
2019-01-13T10:36:03.503Z,3.20
2019-01-13T10:38:34.540Z,3.20
2019-01-13T10:41:04.784Z,3.24
2019-01-13T10:43:34.686Z,3.25
2019-01-13T10:46:04.700Z,3.21
2019-01-13T10:48:34.935Z,3.19
2019-01-13T10:51:05.574Z,3.24
2019-01-13T10:53:36.672Z,3.20
2019-01-13T10:56:06.747Z,3.24
2019-01-13T10:58:36.896Z,3.23
2019-01-13T11:01:06.968Z,3.22
2019-01-13T11:03:37.137Z,3.24
2019-01-13T11:06:07.317Z,3.26
2019-01-13T11:08:37.249Z,3.30
2019-01-13T11:11:07.242Z,3.34
2019-01-13T11:13:38.796Z,3.25
2019-01-13T11:16:08.800Z,3.21
2019-01-13T11:18:38.970Z,3.20
2019-01-13T11:21:08.865Z,3.24
2019-01-13T11:23:39.628Z,3.22
2019-01-13T11:26:10.104Z,3.27
2019-01-13T11:28:40.257Z,3.36
2019-01-13T11:31:10.933Z,3.39
2019-01-13T11:33:40.846Z,3.43
2019-01-13T11:36:10.992Z,3.50
2019-01-13T11:38:41.086Z,3.50
2019-01-13T11:41:11.057Z,3.48
2019-01-13T11:43:41.026Z,3.44
2019-01-13T11:46:11.279Z,3.50
2019-01-13T11:48:41.216Z,3.47
2019-01-13T11:51:11.397Z,3.50
2019-01-13T11:53:41.682Z,3.56
2019-01-13T11:56:13.261Z,3.56
2019-01-13T11:58:43.586Z,3.59
2019-01-13T12:01:13.944Z,3.56
2019-01-13T12:03:43.836Z,3.57
2019-01-13T12:06:13.891Z,3.64
2019-01-13T12:08:44.245Z,3.70
2019-01-13T12:11:14.265Z,3.70
2019-01-13T12:13:44.226Z,3.74
2019-01-13T12:16:14.131Z,3.77
2019-01-13T12:18:44.265Z,3.77
2019-01-13T12:21:14.270Z,3.83
2019-01-13T12:23:44.682Z,3.84
2019-01-13T12:26:14.604Z,3.90
2019-01-13T12:28:44.584Z,3.90
2019-01-13T12:31:14.883Z,3.88
2019-01-13T12:33:44.841Z,3.87
2019-01-13T12:36:14.975Z,3.97
2019-01-13T12:38:44.908Z,4.02
2019-01-13T12:41:14.833Z,4.06
2019-01-13T12:43:44.799Z,4.01
2019-01-13T12:46:14.718Z,4.05
2019-01-13T12:48:44.990Z,4.03
2019-01-13T12:51:14.986Z,4.08
2019-01-13T12:53:44.936Z,4.11
2019-01-13T12:56:15.191Z,4.13
2019-01-13T12:58:45.120Z,4.14
2019-01-13T13:01:15.097Z,4.14
2019-01-13T13:03:45.004Z,4.24
2019-01-13T13:06:15.174Z,4.28
2019-01-13T13:08:45.363Z,4.34
2019-01-13T13:11:15.275Z,4.37
2019-01-13T13:13:45.172Z,4.37
2019-01-13T13:16:15.093Z,4.38
2019-01-13T13:18:45.260Z,4.43
2019-01-13T13:21:15.666Z,4.41
2019-01-13T13:23:45.709Z,4.45
2019-01-13T13:26:15.850Z,4.40
2019-01-13T13:28:45.998Z,4.42
2019-01-13T13:31:16.063Z,4.48
2019-01-13T13:33:46.073Z,4.50
2019-01-13T13:36:16.132Z,4.44
2019-01-13T13:38:46.146Z,4.55
2019-01-13T13:41:16.298Z,4.64
2019-01-13T13:43:44.707Z,4.70
2019-01-13T13:46:15.052Z,4.82
2019-01-13T13:48:45.104Z,4.88
2019-01-13T13:51:15.780Z,4.84
2019-01-13T13:53:45.830Z,4.98
2019-01-13T13:56:15.758Z,5.07
2019-01-13T13:58:45.980Z,5.10
2019-01-13T14:01:15.889Z,5.16
2019-01-13T14:03:46.182Z,5.28
2019-01-13T14:06:16.441Z,5.25
2019-01-13T14:08:46.339Z,5.25
2019-01-13T14:11:16.486Z,5.25
2019-01-13T14:13:46.643Z,5.38
2019-01-13T14:16:16.797Z,5.47
2019-01-13T14:18:47.593Z,5.55
2019-01-13T14:21:18.052Z,5.51
2019-01-13T14:23:48.199Z,5.65
2019-01-13T14:26:18.357Z,5.66
2019-01-13T14:28:48.246Z,5.71
2019-01-13T14:31:18.257Z,5.79
2019-01-13T14:33:52.887Z,5.79
2019-01-13T14:36:20.887Z,5.81
2019-01-13T14:38:50.790Z,5.79
2019-01-13T14:41:20.945Z,5.87
2019-01-13T14:43:50.844Z,5.92
2019-01-13T14:46:20.730Z,5.97
2019-01-13T14:48:50.735Z,6.00
2019-01-13T14:51:20.632Z,5.82
2019-01-13T14:53:50.769Z,5.77
2019-01-13T14:56:20.915Z,5.75
2019-01-13T14:58:50.821Z,5.68
2019-01-13T15:01:20.728Z,5.63
2019-01-13T15:03:50.890Z,5.63
2019-01-13T15:06:20.777Z,5.58
2019-01-13T15:08:50.691Z,5.57
2019-01-13T15:11:20.585Z,5.62
2019-01-13T15:13:50.510Z,5.59
2019-01-13T15:20:07.491Z,5.57
2019-01-13T15:22:37.460Z,5.51
2019-01-13T15:25:09.962Z,5.50
2019-01-13T15:27:40.034Z,5.46
2019-01-13T15:30:20.602Z,5.49
2019-01-13T15:32:50.505Z,5.49
2019-01-13T15:35:20.665Z,5.62
2019-01-13T15:37:50.814Z,5.56
2019-01-13T15:40:21.133Z,5.54
2019-01-13T15:42:51.633Z,5.54
2019-01-13T15:45:22.430Z,5.57
2019-01-13T15:47:52.601Z,5.57
2019-01-13T15:50:25.909Z,5.60
2019-01-13T15:52:55.955Z,5.53
2019-01-13T15:55:26.120Z,5.55
2019-01-13T15:57:56.013Z,5.64
2019-01-13T16:00:29.193Z,5.65
2019-01-13T16:02:59.356Z,5.70
2019-01-13T16:16:53.327Z,5.60
2019-01-13T16:19:23.615Z,5.55
2019-01-13T16:21:53.703Z,5.58
2019-01-13T16:24:24.462Z,5.63
2019-01-13T16:26:54.402Z,5.57
2019-01-13T16:29:24.314Z,5.64
2019-01-13T16:31:54.317Z,5.57
2019-01-13T16:34:24.422Z,5.65
2019-01-13T16:36:54.355Z,5.69
2019-01-13T16:39:24.751Z,5.67
2019-01-13T16:41:54.909Z,5.69
2019-01-13T16:44:25.120Z,5.73
2019-01-13T16:46:55.035Z,5.74
2019-01-13T16:49:25.061Z,5.77
2019-01-13T16:51:54.962Z,5.71
2019-01-13T16:54:24.872Z,5.70
2019-01-13T16:56:54.794Z,5.73
2019-01-13T16:59:25.456Z,5.76
2019-01-13T17:01:55.349Z,5.68
2019-01-13T17:04:29.016Z,5.75
2019-01-13T17:06:57.456Z,5.73
2019-01-13T17:09:30.508Z,5.71
2019-01-13T17:12:00.421Z,5.75
2019-01-13T17:14:30.334Z,5.79
2019-01-13T17:17:00.371Z,5.72
2019-01-13T17:19:30.358Z,5.74
2019-01-13T17:22:00.533Z,5.76
2019-01-13T17:24:30.895Z,5.78
2019-01-13T17:27:00.830Z,5.78
2019-01-13T17:29:30.746Z,5.81
2019-01-13T17:32:01.163Z,5.84
2019-01-13T17:34:35.803Z,5.81
2019-01-13T17:37:03.021Z,5.78
2019-01-13T17:39:33.707Z,5.77
2019-01-13T17:42:03.641Z,5.76
2019-01-13T17:44:34.655Z,5.79
2019-01-13T17:47:04.847Z,5.81
2019-01-13T17:49:34.806Z,5.82
2019-01-13T17:52:05.083Z,5.75
2019-01-13T17:54:34.978Z,5.76
2019-01-13T17:57:05.287Z,5.78
2019-01-13T17:59:35.271Z,5.80
2019-01-13T18:02:05.304Z,5.82
2019-01-13T18:04:35.358Z,5.85
2019-01-13T18:07:05.284Z,5.86
2019-01-13T18:09:36.189Z,5.83
2019-01-13T18:12:06.223Z,5.88
2019-01-13T18:14:36.226Z,5.84
2019-01-13T18:17:06.833Z,5.90
2019-01-13T18:23:28.259Z,5.82
2019-01-13T18:25:58.225Z,5.93
2019-01-13T18:28:28.151Z,5.89
2019-01-13T18:30:58.443Z,5.91
2019-01-13T18:33:28.447Z,5.95
2019-01-13T18:35:58.555Z,5.95
2019-01-13T18:38:28.638Z,5.95
2019-01-13T18:40:58.592Z,5.90
2019-01-13T18:43:28.931Z,5.96
2019-01-13T18:45:59.196Z,5.91
2019-01-13T18:48:30.171Z,5.97
2019-01-13T18:51:00.054Z,5.96
2019-01-13T18:53:30.294Z,6.00
2019-01-13T18:56:00.432Z,5.97
2019-01-13T18:58:30.357Z,6.01
2019-01-13T19:01:01.131Z,6.01
2019-01-13T19:03:31.450Z,6.02
2019-01-13T19:06:01.614Z,6.03
2019-01-13T19:08:31.482Z,6.03
2019-01-13T19:11:39.985Z,6.04
2019-01-13T19:14:36.805Z,6.04
2019-01-13T19:17:12.594Z,6.04
2019-01-13T19:20:19.761Z,6.03
2019-01-13T19:22:53.220Z,6.08
2019-01-13T19:25:34.703Z,6.09
2019-01-13T19:28:05.055Z,6.11
2019-01-13T19:30:35.143Z,6.07
2019-01-13T19:33:05.264Z,6.09
2019-01-13T19:35:35.712Z,6.09
2019-01-13T19:38:06.357Z,6.14
2019-01-13T19:40:36.548Z,6.21
2019-01-13T19:43:06.586Z,6.19
2019-01-13T19:45:36.620Z,6.29
2019-01-13T19:48:06.659Z,6.36
2019-01-13T19:50:36.749Z,6.45
2019-01-13T19:53:06.637Z,6.52
2019-01-13T19:55:37.159Z,6.58
2019-01-13T19:58:07.321Z,6.54
2019-01-13T20:00:38.190Z,6.58
2019-01-13T20:03:08.709Z,6.61
2019-01-13T20:05:38.741Z,6.62
2019-01-13T20:08:08.859Z,6.59
2019-01-13T20:10:39.449Z,6.54
2019-01-13T20:13:09.451Z,6.53
2019-01-13T20:15:39.454Z,6.51
2019-01-13T20:18:09.982Z,6.46
2019-01-13T20:20:40.239Z,6.43
2019-01-13T20:23:10.374Z,6.52
2019-01-13T20:25:40.321Z,6.42
2019-01-13T20:28:10.201Z,6.38
2019-01-13T20:30:40.884Z,6.41
2019-01-13T20:33:10.786Z,6.39
2019-01-13T20:35:40.700Z,6.37
2019-01-13T20:38:10.608Z,6.41
2019-01-13T20:40:41.036Z,6.44
2019-01-13T20:43:11.045Z,6.53
2019-01-13T20:45:43.004Z,6.53
2019-01-13T20:48:13.228Z,6.61
2019-01-13T20:50:43.127Z,6.75
2019-01-13T20:53:13.392Z,6.73
2019-01-13T20:55:43.543Z,6.73
2019-01-13T20:58:13.791Z,6.85
2019-01-13T21:00:44.038Z,6.82
2019-01-13T21:03:14.019Z,6.86
2019-01-13T21:05:43.970Z,6.92
2019-01-13T21:08:13.950Z,6.89
2019-01-13T21:10:43.864Z,6.97
2019-01-13T21:13:13.937Z,6.98
2019-01-13T21:15:43.909Z,6.97
2019-01-13T21:18:13.925Z,7.03
2019-01-13T21:20:43.938Z,7.02
2019-01-13T21:23:13.918Z,7.01
2019-01-13T21:25:44.015Z,7.01
2019-01-13T21:28:14.028Z,6.90
2019-01-13T21:30:44.294Z,7.00
2019-01-13T21:33:14.855Z,6.86
2019-01-13T21:35:45.002Z,6.95
2019-01-13T21:38:14.995Z,6.96
2019-01-13T21:40:44.915Z,6.76
2019-01-13T21:43:15.109Z,6.78
2019-01-13T21:45:45.005Z,6.64
2019-01-13T21:48:17.232Z,6.63
2019-01-13T21:50:47.449Z,6.56
2019-01-13T21:53:17.448Z,6.55
2019-01-13T21:55:47.425Z,6.57
2019-01-13T21:58:17.335Z,6.64
2019-01-13T22:00:47.758Z,6.84
2019-01-13T22:03:17.664Z,6.92
2019-01-13T22:05:47.866Z,7.02
2019-01-13T22:08:17.857Z,6.99
2019-01-13T22:10:47.860Z,7.05
2019-01-13T22:13:18.111Z,7.10
2019-01-13T22:15:48.720Z,7.13
2019-01-13T22:18:18.625Z,7.10
2019-01-13T22:20:48.882Z,7.01
2019-01-13T22:23:19.544Z,6.98
2019-01-13T22:25:50.011Z,6.89
2019-01-13T22:28:20.167Z,7.07
2019-01-13T22:30:50.313Z,7.11
2019-01-13T22:33:20.249Z,7.04
2019-01-13T22:35:50.381Z,7.14
2019-01-13T22:38:20.297Z,7.08
2019-01-13T22:40:50.192Z,7.03
2019-01-13T22:43:20.134Z,7.15
2019-01-13T22:45:50.270Z,7.17
2019-01-13T22:48:20.796Z,7.09
2019-01-13T22:50:51.005Z,7.08
2019-01-13T22:53:21.737Z,6.86
2019-01-13T22:55:52.247Z,6.75
2019-01-13T22:58:22.276Z,6.73
2019-01-13T23:01:30.001Z,6.77
2019-01-13T23:04:16.533Z,6.71
2019-01-13T23:06:46.912Z,6.72
2019-01-13T23:09:16.836Z,6.57
2019-01-13T23:11:46.890Z,6.57
2019-01-13T23:14:17.488Z,6.54
2019-01-13T23:16:47.556Z,6.41
2019-01-13T23:19:17.814Z,6.40
2019-01-13T23:21:47.722Z,6.75
2019-01-13T23:24:18.225Z,6.75
2019-01-13T23:26:48.145Z,6.57
2019-01-13T23:29:18.062Z,6.61
2019-01-13T23:31:48.233Z,6.52
2019-01-13T23:34:18.334Z,6.36
2019-01-13T23:36:48.778Z,5.95
2019-01-13T23:39:18.698Z,5.55
2019-01-13T23:41:48.595Z,5.17
2019-01-13T23:44:18.797Z,5.02
2019-01-13T23:48:01.525Z,4.75
2019-01-13T23:50:31.683Z,3.99
2019-01-13T23:53:01.907Z,3.99
2019-01-13T23:55:32.121Z,4.06
2019-01-13T23:58:02.101Z,4.14
